createdAt,value
2017-09-02T08:12:27.710Z,16.7
2017-09-02T08:15:24.921Z,17.2
2017-09-02T08:20:21.296Z,16.8
2017-09-02T08:21:19.982Z,16.8
2017-09-02T08:22:19.933Z,16.8
2017-09-02T08:23:18.609Z,16.6
2017-09-02T08:24:18.175Z,16.8
2017-09-02T08:26:16.635Z,16.8
2017-09-02T08:38:07.074Z,17.8
2017-09-02T08:55:54.350Z,19
2017-09-02T08:56:24.480Z,19
2017-09-02T08:58:52.125Z,19.1
2017-09-02T09:02:49.108Z,19.1
2017-09-02T09:17:37.719Z,18
2017-09-02T10:08:01.300Z,18
2017-09-02T10:31:44.039Z,18.5
2017-09-02T10:42:36.357Z,18
2017-09-02T12:08:36.027Z,17.5
2017-09-02T12:09:34.979Z,17.5
2017-09-02T12:10:34.799Z,17.5
2017-09-02T12:11:34.493Z,17.5
2017-09-02T12:12:33.427Z,17.5
2017-09-02T12:13:32.742Z,17.5
2017-09-02T12:14:32.184Z,17.5
2017-09-02T12:15:31.253Z,17.5
2017-09-02T12:16:30.447Z,17.5
2017-09-02T12:17:29.890Z,17.5
2017-09-02T12:18:29.347Z,17.3
2017-09-02T12:19:28.909Z,17.2
2017-09-02T12:20:27.854Z,17.2
2017-09-02T12:21:27.427Z,17.2
2017-09-02T12:22:26.494Z,17.3
2017-09-02T12:23:25.817Z,17.3
2017-09-02T12:24:25.022Z,17.5
2017-09-02T12:25:24.470Z,17.5
2017-09-02T12:26:23.789Z,17.6
2017-09-02T12:27:23.112Z,17.7
2017-09-02T12:28:22.307Z,17.8
2017-09-02T12:29:21.873Z,17.8
2017-09-02T12:30:21.186Z,17.8
2017-09-02T12:50:07.648Z,15.1
2017-09-02T13:08:54.743Z,13.6
2017-09-02T13:10:52.949Z,13.8
2017-09-02T13:11:52.393Z,13.8
2017-09-02T13:12:51.711Z,13.6
2017-09-02T13:14:50.550Z,14
2017-09-02T13:15:49.864Z,13.9
2017-09-02T13:16:48.672Z,13.6
2017-09-02T13:17:48.120Z,13.8
2017-09-02T13:19:46.964Z,14.1
2017-09-02T13:23:44.203Z,14.6
2017-09-02T13:27:41.452Z,14.7
2017-09-02T13:28:40.396Z,14.7
2017-09-02T13:30:39.100Z,14.6
2017-09-02T13:33:36.942Z,14.6
2017-09-02T13:34:36.117Z,14.7
2017-09-02T13:35:35.560Z,14.6
2017-09-02T13:36:34.886Z,14.7
2017-09-02T13:37:34.327Z,14.9
2017-09-02T13:38:33.378Z,14.9
2017-09-02T13:39:32.577Z,15
2017-09-02T13:41:31.285Z,14.8
2017-09-02T13:46:27.541Z,15.1
2017-09-02T13:51:24.306Z,15.1
2017-09-02T13:54:22.542Z,15.1
2017-09-02T13:58:19.019Z,15.1
2017-09-02T14:11:10.244Z,15.1
2017-09-02T14:12:09.063Z,15.3
2017-09-02T14:15:07.421Z,15.2
2017-09-02T14:16:06.366Z,15.2
2017-09-02T14:19:04.333Z,15.3
2017-09-02T14:20:03.523Z,15.3
2017-09-02T14:23:01.242Z,15.2
2017-09-02T14:24:00.801Z,15
2017-09-02T14:24:59.986Z,15
2017-09-02T14:25:59.423Z,15.1
2017-09-02T14:26:58.249Z,15.2
2017-09-02T14:27:57.940Z,15.2
2017-09-02T14:28:56.890Z,15.4
2017-09-02T14:29:56.086Z,15.5
2017-09-02T14:30:55.525Z,15.5
2017-09-02T14:31:54.959Z,15.6
2017-09-02T14:34:52.554Z,15.6
2017-09-02T14:35:51.878Z,15.5
2017-09-02T14:36:51.072Z,15.5
2017-09-02T14:37:50.636Z,15.5
2017-09-02T14:38:49.829Z,15.5
2017-09-02T14:39:49.265Z,15.4
2017-09-02T14:40:48.070Z,15.5
2017-09-02T14:41:47.761Z,15.4
2017-09-02T14:42:47.194Z,15.5
2017-09-02T14:43:46.516Z,15.5
2017-09-02T14:45:44.714Z,15.6
2017-09-02T14:46:43.906Z,15.6
2017-09-02T14:47:43.616Z,15.7
2017-09-02T14:48:43.175Z,15.6
2017-09-02T14:49:41.984Z,15.4
2017-09-02T14:50:41.553Z,15.5
2017-09-02T14:51:40.246Z,15.5
2017-09-02T14:52:39.963Z,15.5
2017-09-02T14:54:38.794Z,15.5
2017-09-02T14:55:37.610Z,15.5
2017-09-02T14:57:36.202Z,15.4
2017-09-02T14:58:35.901Z,15.6
2017-09-02T14:59:34.591Z,15.6
2017-09-02T15:00:34.420Z,15.6
2017-09-02T15:01:33.489Z,15.7
2017-09-02T15:02:32.953Z,15.6
2017-09-02T15:03:32.284Z,15.6
2017-09-02T15:04:31.601Z,15.7
2017-09-02T15:05:30.550Z,15.8
2017-09-02T15:06:29.847Z,15.8
2017-09-02T15:07:29.159Z,15.9
2017-09-02T15:08:28.603Z,15.8
2017-09-02T15:10:27.319Z,16
2017-09-02T15:12:25.513Z,16
2017-09-02T15:12:55.510Z,16
2017-09-02T15:13:26.402Z,16
2017-09-02T15:14:24.464Z,16
2017-09-02T15:17:22.307Z,16.1
2017-09-02T15:18:21.245Z,16.1
2017-09-02T15:19:21.193Z,16.1
2017-09-02T15:20:19.873Z,16.1
2017-09-02T15:22:18.703Z,16
2017-09-02T15:22:48.828Z,16
2017-09-02T15:24:17.335Z,16
2017-09-02T15:24:47.590Z,16
2017-09-02T15:25:18.220Z,16.1
2017-09-02T15:25:48.592Z,16.1
2017-09-02T15:31:12.516Z,16.1
2017-09-02T15:32:11.713Z,16
2017-09-02T15:33:11.160Z,16
2017-09-02T15:40:06.439Z,16.2
2017-09-02T15:41:05.255Z,16.3
2017-09-02T15:44:03.348Z,16.4
2017-09-02T15:45:02.670Z,16.4
2017-09-02T15:47:00.910Z,16.4
2017-09-02T15:48:59.750Z,16.5
2017-09-02T15:49:59.186Z,16.5
2017-09-02T15:50:58.124Z,16.5
2017-09-02T15:51:57.573Z,16.5
2017-09-02T15:52:57.012Z,16.6
2017-09-02T15:53:56.332Z,16.5
2017-09-02T15:54:55.778Z,16.5
2017-09-02T15:55:54.710Z,16.6
2017-09-02T15:56:53.792Z,16.6
2017-09-02T15:57:53.495Z,16.6
2017-09-02T15:58:52.805Z,16.6
2017-09-02T16:00:51.394Z,17
2017-09-02T16:02:50.237Z,17.1
2017-09-02T16:03:49.431Z,17.1
2017-09-02T16:06:46.911Z,17.2
2017-09-02T16:07:46.734Z,17.2
2017-09-02T16:08:46.045Z,17.3
2017-09-02T16:09:44.985Z,17.3
2017-09-02T16:10:44.932Z,17.2
2017-09-02T16:11:43.629Z,17.3
2017-09-02T16:12:43.447Z,17.3
2017-09-02T16:13:42.890Z,17.3
2017-09-02T16:14:41.954Z,17.3
2017-09-02T16:15:41.276Z,17.3
2017-09-02T16:16:40.604Z,17.2
2017-09-02T16:17:39.419Z,17.3
2017-09-02T16:18:39.026Z,17.3
2017-09-02T16:19:38.608Z,17.3
2017-09-02T16:21:36.559Z,17.2
2017-09-02T16:23:35.901Z,17.2
2017-09-02T16:24:34.714Z,17.2
2017-09-02T16:25:34.531Z,17.1
2017-09-02T16:26:33.338Z,17.1
2017-09-02T16:27:32.546Z,17.2
2017-09-02T16:28:32.004Z,17.2
2017-09-02T16:29:31.559Z,17.1
2017-09-02T16:30:30.612Z,17.1
2017-09-02T16:31:29.941Z,17.1
2017-09-02T16:32:29.000Z,17
2017-09-02T16:33:28.822Z,17
2017-09-02T16:34:28.269Z,17
2017-09-02T16:35:27.213Z,17
2017-09-02T16:37:25.931Z,16.9
2017-09-02T16:38:25.021Z,16.9
2017-09-02T16:39:24.584Z,16.9
2017-09-02T16:40:23.788Z,16.9
2017-09-02T16:41:23.253Z,16.8
2017-09-02T16:42:22.569Z,16.8
2017-09-02T16:43:21.767Z,16.8
2017-09-02T16:44:21.223Z,16.8
2017-09-02T16:45:20.669Z,16.8
2017-09-02T16:46:19.484Z,16.8
2017-09-02T16:47:19.430Z,16.8
2017-09-02T16:48:18.749Z,16.8
2017-09-02T16:49:17.688Z,16.8
2017-09-02T16:50:17.123Z,16.8
2017-09-02T16:51:16.616Z,16.8
2017-09-02T16:52:15.431Z,16.8
2017-09-02T16:53:14.630Z,16.8
2017-09-02T16:54:14.077Z,16.7
2017-09-02T16:55:13.520Z,16.7
2017-09-02T16:56:12.723Z,16.7
2017-09-02T16:57:12.184Z,16.7
2017-09-02T16:58:11.628Z,16.7
2017-09-02T16:59:11.071Z,16.6
2017-09-02T17:00:10.267Z,16.6
2017-09-02T17:01:09.333Z,16.6
2017-09-02T17:02:08.782Z,16.6
2017-09-02T17:03:08.229Z,16.6
2017-09-02T17:04:07.043Z,16.5
2017-09-02T17:05:06.736Z,16.5
2017-09-02T17:06:05.804Z,16.5
2017-09-02T17:07:05.127Z,16.5
2017-09-02T17:08:04.189Z,16.5
2017-09-02T17:09:03.897Z,16.5
2017-09-02T17:10:03.343Z,16.5
2017-09-02T17:11:02.151Z,16.5
2017-09-02T17:12:01.339Z,16.5
2017-09-02T17:13:01.038Z,16.4
2017-09-02T17:14:00.343Z,16.4
2017-09-02T17:14:59.650Z,16.4
2017-09-02T17:15:58.958Z,16.3
2017-09-02T17:16:58.026Z,16.3
2017-09-02T17:17:57.621Z,16.3
2017-09-02T17:18:57.071Z,16.3
2017-09-02T17:19:55.889Z,16.3
2017-09-02T17:20:55.329Z,16.3
2017-09-02T17:22:54.292Z,16.2
2017-09-02T17:23:53.237Z,16.2
2017-09-02T17:25:52.173Z,16.1
2017-09-02T17:26:50.990Z,16.1
2017-09-02T17:27:50.603Z,16.1
2017-09-02T17:28:49.561Z,16.1
2017-09-02T17:29:49.510Z,16.1
2017-09-02T17:30:48.455Z,16.1
2017-09-02T17:31:47.901Z,16.1
2017-09-02T17:32:47.220Z,16.1
2017-09-02T17:33:45.791Z,16.1
2017-09-02T17:34:45.619Z,16.1
2017-09-02T17:36:43.970Z,16.1
2017-09-02T17:37:43.537Z,16.1
2017-09-02T17:38:42.633Z,16
2017-09-02T17:39:41.958Z,16.1
2017-09-02T17:40:40.902Z,16.1
2017-09-02T17:41:40.974Z,16
2017-09-02T17:42:39.658Z,16
2017-09-02T17:43:38.961Z,16
2017-09-02T17:44:38.409Z,16
2017-09-02T17:45:37.856Z,15.9
2017-09-02T17:47:36.446Z,15.8
2017-09-02T17:48:35.767Z,15.8
2017-09-02T17:49:34.856Z,15.8
2017-09-02T17:50:34.174Z,15.8
2017-09-02T17:51:33.224Z,15.8
2017-09-02T17:52:32.914Z,15.8
2017-09-02T17:53:32.231Z,15.8
2017-09-02T17:54:02.737Z,15.8
2017-09-02T17:54:32.983Z,15.8
2017-09-02T17:55:03.367Z,15.8
2017-09-02T17:56:29.852Z,15.8
2017-09-02T17:57:29.287Z,15.8
2017-09-02T17:58:28.487Z,15.8
2017-09-02T17:59:27.829Z,15.8
2017-09-02T18:00:27.251Z,15.7
2017-09-02T18:01:26.441Z,15.7
2017-09-02T18:02:25.509Z,15.7
2017-09-02T18:03:24.953Z,15.7
2017-09-02T18:05:23.793Z,15.7
2017-09-02T18:07:22.001Z,15.6
2017-09-02T18:08:21.441Z,15.6
2017-09-02T18:09:21.018Z,15.6
2017-09-02T18:10:19.699Z,15.6
2017-09-02T18:11:19.052Z,15.6
2017-09-02T18:12:18.353Z,15.6
2017-09-02T18:13:17.659Z,15.5
2017-09-02T18:14:16.980Z,15.5
2017-09-02T18:15:16.184Z,15.5
2017-09-02T18:17:15.021Z,15.5
2017-09-02T18:18:14.593Z,15.4
2017-09-02T18:19:13.526Z,15.4
2017-09-02T18:20:12.732Z,15.4
2017-09-02T18:21:12.306Z,15.3
2017-09-02T18:22:11.000Z,15.3
2017-09-02T18:23:10.587Z,15.3
2017-09-02T18:24:10.031Z,15.3
2017-09-02T18:25:08.869Z,15.3
2017-09-02T18:26:08.142Z,15.2
2017-09-02T18:27:07.219Z,15.2
2017-09-02T18:28:06.785Z,15.1
2017-09-02T18:29:06.350Z,15.1
2017-09-02T18:30:05.801Z,15.1
2017-09-02T18:31:04.619Z,15.1
2017-09-02T18:32:03.814Z,15.1
2017-09-02T18:33:03.326Z,15.1
2017-09-02T18:35:01.805Z,15.1
2017-09-02T18:36:00.989Z,15.1
2017-09-02T18:37:00.054Z,15
2017-09-02T18:38:58.753Z,15
2017-09-02T18:40:57.700Z,14.9
2017-09-02T18:41:56.897Z,14.9
2017-09-02T18:42:56.258Z,14.9
2017-09-02T18:43:55.202Z,14.9
2017-09-02T18:44:54.267Z,14.9
2017-09-02T18:45:54.099Z,14.8
2017-09-02T18:46:53.439Z,14.8
2017-09-02T18:47:52.257Z,14.8
2017-09-02T18:48:51.697Z,14.8
2017-09-02T18:49:51.026Z,14.8
2017-09-02T18:50:50.359Z,14.8
2017-09-02T18:51:49.589Z,14.8
2017-09-02T18:52:49.183Z,14.9
2017-09-02T18:55:46.766Z,14.9
2017-09-02T18:56:45.843Z,15
2017-09-02T18:57:45.036Z,15
2017-09-02T18:58:44.224Z,15
2017-09-02T18:59:43.427Z,14.9
2017-09-02T19:00:42.876Z,15
2017-09-02T19:01:41.939Z,14.9
2017-09-02T19:02:41.376Z,14.9
2017-09-02T19:05:39.129Z,15
2017-09-02T19:06:38.623Z,15
2017-09-02T19:07:38.075Z,14.9
2017-09-02T19:08:37.043Z,15
2017-09-02T19:10:35.744Z,14.9
2017-09-02T19:12:33.944Z,14.8
2017-09-02T19:13:33.133Z,14.8
2017-09-02T19:15:32.236Z,14.8
2017-09-02T19:16:31.053Z,14.8
2017-09-02T19:17:30.784Z,14.8
2017-09-02T19:18:29.727Z,14.8
2017-09-02T19:19:29.090Z,14.7
2017-09-02T19:20:28.169Z,14.7
2017-09-02T19:21:27.516Z,14.6
2017-09-02T19:22:26.705Z,14.7
2017-09-02T19:23:25.893Z,14.7
2017-09-02T19:25:24.466Z,14.6
2017-09-02T19:26:23.906Z,14.6
2017-09-02T19:27:23.090Z,14.6
2017-09-02T19:28:22.525Z,14.6
2017-09-02T19:29:21.466Z,14.5
2017-09-02T19:30:20.538Z,14.6
2017-09-02T19:31:20.357Z,14.6
2017-09-02T19:32:19.163Z,14.6
2017-09-02T19:33:18.725Z,14.6
2017-09-02T19:35:17.061Z,14.5
2017-09-02T19:36:16.625Z,14.5
2017-09-02T19:37:15.696Z,14.5
2017-09-02T19:38:15.146Z,14.5
2017-09-02T19:39:14.101Z,14.5
2017-09-02T19:40:13.293Z,14.5
2017-09-02T19:41:12.349Z,14.5
2017-09-02T19:42:12.167Z,14.5
2017-09-02T19:43:10.997Z,14.5
2017-09-02T19:44:10.700Z,14.5
2017-09-02T19:45:09.796Z,14.5
2017-09-02T19:46:08.861Z,14.5
2017-09-02T19:47:08.065Z,14.5
2017-09-02T19:48:07.255Z,14.5
2017-09-02T19:49:06.696Z,14.5
2017-09-02T19:50:06.285Z,14.5
2017-09-02T19:51:05.095Z,14.5
2017-09-02T19:52:04.572Z,14.5
2017-09-02T19:53:04.167Z,14.5
2017-09-02T19:54:02.863Z,14.5
2017-09-02T19:55:02.442Z,14.5
2017-09-02T19:56:01.655Z,14.5
2017-09-02T19:57:00.470Z,14.5
2017-09-02T19:57:59.779Z,14.5
2017-09-02T20:00:57.877Z,14.5
2017-09-02T20:01:56.812Z,14.5
2017-09-02T20:02:56.250Z,14.6
2017-09-02T20:03:55.819Z,14.6
2017-09-02T20:04:54.506Z,14.6
2017-09-02T20:06:53.358Z,14.6
2017-09-02T20:07:52.441Z,14.5
2017-09-02T20:08:51.901Z,14.5
2017-09-02T20:09:50.716Z,14.4
2017-09-02T20:10:50.416Z,14.4
2017-09-02T20:11:49.613Z,14.3
2017-09-02T20:13:47.689Z,14.3
2017-09-02T20:14:47.777Z,14.3
2017-09-02T20:15:46.595Z,14.4
2017-09-02T20:16:46.029Z,14.4
2017-09-02T20:17:44.972Z,14.4
2017-09-02T20:18:44.029Z,14.5
2017-09-02T20:19:43.468Z,14.5
2017-09-02T20:20:43.070Z,14.5
2017-09-02T20:21:42.166Z,14.6
2017-09-02T20:22:41.244Z,14.6
2017-09-02T20:24:39.454Z,14.6
2017-09-02T20:25:38.769Z,14.6
2017-09-02T20:26:38.206Z,14.6
2017-09-02T20:27:37.271Z,14.6
2017-09-02T20:28:36.585Z,14.6
2017-09-02T20:29:35.765Z,14.6
2017-09-02T20:30:35.450Z,14.7
2017-09-02T20:31:34.135Z,14.7
2017-09-02T20:34:32.231Z,14.7
2017-09-02T20:35:31.423Z,14.7
2017-09-02T20:36:30.782Z,14.7
2017-09-02T20:37:29.983Z,14.7
2017-09-02T20:38:29.052Z,14.7
2017-09-02T20:39:28.246Z,14.6
2017-09-02T20:40:27.569Z,14.6
2017-09-02T20:41:27.141Z,14.6
2017-09-02T20:42:25.991Z,14.6
2017-09-02T20:44:24.822Z,14.6
2017-09-02T20:45:23.764Z,14.6
2017-09-02T20:46:23.207Z,14.6
2017-09-02T20:47:22.796Z,14.6
2017-09-02T20:48:21.647Z,14.5
2017-09-02T20:49:21.100Z,14.5
2017-09-02T20:49:51.341Z,14.5
2017-09-02T20:51:19.341Z,14.6
2017-09-02T20:52:18.654Z,14.6
2017-09-02T20:54:17.361Z,14.6
2017-09-02T20:55:16.164Z,14.6
2017-09-02T20:56:15.615Z,14.6
2017-09-02T20:57:14.931Z,14.6
2017-09-02T20:58:13.751Z,14.6
2017-09-02T20:59:13.455Z,14.6
2017-09-02T21:00:12.510Z,14.6
2017-09-02T21:01:11.576Z,14.6
2017-09-02T21:02:11.028Z,14.6
2017-09-02T21:04:09.644Z,14.6
2017-09-02T21:06:07.846Z,14.6
2017-09-02T21:07:07.031Z,14.5
2017-09-02T21:08:06.725Z,14.5
2017-09-02T21:09:05.693Z,14.5
2017-09-02T21:10:05.147Z,14.5
2017-09-02T21:11:04.582Z,14.5
2017-09-02T21:12:03.403Z,14.5
2017-09-02T21:13:02.986Z,14.5
2017-09-02T21:14:01.833Z,14.5
2017-09-02T21:15:01.154Z,14.5
2017-09-02T21:16:00.746Z,14.5
2017-09-02T21:16:59.456Z,14.5
2017-09-02T21:17:58.777Z,14.5
2017-09-02T21:18:57.963Z,14.5
2017-09-02T21:19:57.424Z,14.5
2017-09-02T21:20:56.750Z,14.5
2017-09-02T21:21:55.705Z,14.5
2017-09-02T21:22:55.027Z,14.5
2017-09-02T21:23:54.222Z,14.5
2017-09-02T21:24:53.776Z,14.5
2017-09-02T21:26:52.352Z,14.5
2017-09-02T21:27:51.537Z,14.5
2017-09-02T21:28:50.473Z,14.5
2017-09-02T21:29:49.941Z,14.4
2017-09-02T21:30:49.386Z,14.3
2017-09-02T21:31:48.189Z,14.3
2017-09-02T21:33:47.141Z,14.3
2017-09-02T21:34:46.083Z,14.3
2017-09-02T21:35:45.021Z,14.3
2017-09-02T21:36:44.466Z,14.3
2017-09-02T21:37:43.784Z,14.3
2017-09-02T21:38:43.350Z,14.3
2017-09-02T21:39:42.152Z,14.3
2017-09-02T21:40:41.353Z,14.3
2017-09-02T21:41:40.676Z,14.2
2017-09-02T21:42:39.737Z,14.1
2017-09-02T21:43:10.623Z,14.1
2017-09-02T21:44:38.623Z,14.1
2017-09-02T21:45:37.945Z,14
2017-09-02T21:46:36.770Z,14
2017-09-02T21:47:36.226Z,14
2017-09-02T21:48:35.660Z,14
2017-09-02T21:49:34.477Z,14
2017-09-02T21:50:34.176Z,14
2017-09-02T21:51:33.117Z,14
2017-09-02T21:52:32.555Z,14
2017-09-02T21:53:31.508Z,14
2017-09-02T21:54:30.956Z,14
2017-09-02T21:55:30.024Z,14
2017-09-02T21:56:29.087Z,14
2017-09-02T21:57:28.409Z,13.9
2017-09-02T21:58:27.729Z,13.9
2017-09-02T21:59:26.926Z,13.9
2017-09-02T22:00:26.121Z,13.8
2017-09-02T22:01:25.441Z,13.8
2017-09-02T22:02:24.886Z,13.8
2017-09-02T22:03:24.352Z,13.8
2017-09-02T22:04:23.290Z,13.8
2017-09-02T22:05:22.104Z,13.8
2017-09-02T22:06:21.674Z,13.7
2017-09-02T22:07:21.122Z,13.7
2017-09-02T22:08:20.051Z,13.7
2017-09-02T22:09:19.369Z,13.7
2017-09-02T22:10:18.550Z,13.7
2017-09-02T22:11:17.857Z,13.7
2017-09-02T22:12:16.918Z,13.7
2017-09-02T22:13:16.234Z,13.6
2017-09-02T22:14:15.552Z,13.6
2017-09-02T22:15:14.870Z,13.6
2017-09-02T22:16:14.053Z,13.6
2017-09-02T22:17:13.503Z,13.6
2017-09-02T22:18:12.446Z,13.6
2017-09-02T22:19:11.760Z,13.5
2017-09-02T22:20:10.824Z,13.5
2017-09-02T22:21:10.396Z,13.5
2017-09-02T22:22:09.219Z,13.5
2017-09-02T22:23:08.657Z,13.5
2017-09-02T22:24:07.470Z,13.5
2017-09-02T22:25:07.295Z,13.5
2017-09-02T22:26:06.360Z,13.5
2017-09-02T22:27:05.915Z,13.5
2017-09-02T22:28:04.992Z,13.5
2017-09-02T22:29:03.810Z,13.5
2017-09-02T22:30:03.131Z,13.5
2017-09-02T22:32:01.618Z,13.5
2017-09-02T22:33:00.940Z,13.5
2017-09-02T22:34:00.018Z,13.4
2017-09-02T22:34:59.344Z,13.4
2017-09-02T22:35:58.540Z,13.3
2017-09-02T22:36:57.731Z,13.3
2017-09-02T22:37:57.440Z,13.3
2017-09-02T22:38:56.135Z,13.3
2017-09-02T22:39:55.313Z,13.3
2017-09-02T22:40:54.758Z,13.2
2017-09-02T22:41:53.712Z,13.2
2017-09-02T22:42:53.162Z,13.1
2017-09-02T22:43:52.233Z,13.1
2017-09-02T22:44:51.676Z,13.1
2017-09-02T22:45:50.866Z,13.1
2017-09-02T22:46:50.055Z,13.1
2017-09-02T22:47:49.100Z,13.1
2017-09-02T22:48:48.422Z,13.1
2017-09-02T22:49:47.869Z,13.1
2017-09-02T22:50:46.804Z,13.1
2017-09-02T22:51:46.005Z,13.1
2017-09-02T22:52:45.328Z,13.1
2017-09-02T22:53:44.648Z,13.1
2017-09-02T22:54:43.712Z,13
2017-09-02T22:55:43.009Z,13.1
2017-09-02T22:56:42.459Z,13.1
2017-09-02T22:57:41.283Z,13.1
2017-09-02T22:58:40.851Z,13.1
2017-09-02T22:59:39.664Z,13.1
2017-09-02T23:00:39.091Z,13.1
2017-09-02T23:01:38.551Z,13.1
2017-09-02T23:02:37.364Z,13.1
2017-09-02T23:03:36.430Z,13.1
2017-09-02T23:04:35.745Z,13.1
2017-09-02T23:05:35.179Z,13.1
2017-09-02T23:06:34.610Z,13
2017-09-02T23:07:04.746Z,13
2017-09-02T23:07:35.127Z,13
2017-09-02T23:08:05.875Z,13
2017-09-02T23:08:35.883Z,13
2017-09-02T23:09:06.777Z,13
2017-09-02T23:12:29.667Z,13
2017-09-02T23:13:28.989Z,13
2017-09-02T23:14:28.184Z,13.1
2017-09-02T23:15:27.618Z,13.1
2017-09-02T23:16:26.433Z,13.1
2017-09-02T23:17:25.499Z,13
2017-09-02T23:18:25.064Z,13
2017-09-02T23:19:24.544Z,12.9
2017-09-02T23:20:23.364Z,12.9
2017-09-02T23:21:22.677Z,12.9
2017-09-02T23:22:21.997Z,12.9
2017-09-02T23:23:21.316Z,12.9
2017-09-02T23:24:20.254Z,12.8
2017-09-02T23:26:19.096Z,12.8
2017-09-02T23:27:17.904Z,12.8
2017-09-02T23:28:16.971Z,12.8
2017-09-02T23:29:16.283Z,12.8
2017-09-02T23:30:15.479Z,12.8
2017-09-02T23:31:14.910Z,12.8
2017-09-02T23:32:14.352Z,12.8
2017-09-02T23:33:13.170Z,12.8
2017-09-02T23:34:12.496Z,12.8
2017-09-02T23:36:10.826Z,12.8
2017-09-02T23:37:10.015Z,12.7
2017-09-02T23:39:08.715Z,12.8
2017-09-02T23:40:07.783Z,12.7
2017-09-02T23:41:07.224Z,12.7
2017-09-02T23:42:05.920Z,12.8
2017-09-02T23:43:05.373Z,12.7
2017-09-02T23:44:04.954Z,12.6
2017-09-02T23:45:03.888Z,12.7
2017-09-02T23:46:03.083Z,12.7
2017-09-02T23:47:02.269Z,12.6
2017-09-02T23:49:01.102Z,12.6
2017-09-02T23:50:00.042Z,12.6
2017-09-02T23:50:30.292Z,12.6
2017-09-02T23:51:58.308Z,12.5
2017-09-02T23:52:57.754Z,12.5
2017-09-02T23:53:56.702Z,12.5
2017-09-02T23:54:56.266Z,12.5
2017-09-02T23:55:55.201Z,12.5
2017-09-02T23:56:54.398Z,12.5
2017-09-02T23:58:52.845Z,12.5
2017-09-02T23:59:52.032Z,12.5
